Atlanta, Georgia
Traffic Map
Current Weather Conditions
Atlanta, Georgia
Overcast
Overcast
70°
Feels Like: 70°
Wind Chill: 70° Ceiling: 8500
Heat Index: 70° Visibility: 10mi
Dew Point: 66° Wind: 8mph
Humidity: 87% Direction: 300° (WNW)
Pressure: 29.99in Gusts: 0mph
Raw Report DataKATL 290852Z 30007KT 10SM OVC085 21/19 A2999 RMK AO2 SLP145 BINOVC T02110189 51007
Traffic Incident Summary
Active as of:
Severity:
Category:
InformationThere was an issue retrieving the traffic information for this location. Please try a different location or try again shortly.
Advertisements
Track Severe Weather on mobile